createdAt,value
2016-12-05T00:00:07.826Z,-0.12
2016-12-05T00:01:07.918Z,0.18
2016-12-05T00:02:07.520Z,-0.24
2016-12-05T00:03:08.186Z,-0.21
2016-12-05T00:04:07.867Z,-0.13
2016-12-05T00:05:07.491Z,-0.38
2016-12-05T00:06:08.146Z,-0.19
2016-12-05T00:07:07.739Z,-0.33
2016-12-05T00:08:07.207Z,-0.36
2016-12-05T00:09:07.748Z,-0.43
2016-12-05T00:10:08.180Z,-0.36
2016-12-05T00:11:07.772Z,-0.18
2016-12-05T00:12:08.259Z,-0.07
2016-12-05T00:13:07.857Z,0.01
2016-12-05T00:14:07.383Z,0.19
2016-12-05T00:15:07.959Z,0.12
2016-12-05T00:16:07.541Z,-0.06
2016-12-05T00:17:08.278Z,-0.06
2016-12-05T00:18:07.893Z,0.11
2016-12-05T00:19:07.419Z,0.18
2016-12-05T00:20:08.048Z,0.20
2016-12-05T00:21:07.703Z,0.12
2016-12-05T00:22:07.304Z,0.16
2016-12-05T00:23:07.948Z,0.38
2016-12-05T00:24:07.416Z,0.35
2016-12-05T00:25:08.057Z,-0.01
2016-12-05T00:26:08.712Z,0.14
2016-12-05T00:27:07.218Z,0.13
2016-12-05T00:28:07.763Z,0.07
2016-12-05T00:29:07.274Z,-0.10
2016-12-05T00:30:07.903Z,0.06
2016-12-05T00:31:07.431Z,0.17
2016-12-05T00:32:08.899Z,-0.01
2016-12-05T00:33:07.485Z,-0.05
2016-12-05T00:34:08.130Z,-0.05
2016-12-05T00:35:07.743Z,-0.17
2016-12-05T00:36:07.540Z,0.05
2016-12-05T00:37:13.774Z,-0.20
2016-12-05T00:38:07.376Z,-0.07
2016-12-05T00:39:08.133Z,-0.20
2016-12-05T00:40:07.683Z,-0.17
2016-12-05T00:41:07.179Z,-0.41
2016-12-05T00:42:07.792Z,-0.05
2016-12-05T00:43:07.342Z,-0.00
2016-12-05T00:44:07.963Z,0.20
2016-12-05T00:45:07.508Z,0.15
2016-12-05T00:46:08.066Z,0.14
2016-12-05T00:47:07.685Z,-0.03
2016-12-05T00:48:07.167Z,-0.03
2016-12-05T00:49:07.748Z,-0.13
2016-12-05T00:50:07.333Z,-0.20
2016-12-05T00:51:07.867Z,-0.12
2016-12-05T00:52:07.511Z,0.10
2016-12-05T00:53:08.210Z,-0.13
2016-12-05T00:54:07.811Z,-0.19
2016-12-05T00:55:07.411Z,-0.09
2016-12-05T00:56:08.012Z,-0.00
2016-12-05T00:57:07.154Z,0.09
2016-12-05T00:58:07.808Z,0.06
2016-12-05T00:59:07.573Z,0.08
2016-12-05T01:00:07.264Z,0.24
2016-12-05T01:01:08.099Z,0.07
2016-12-05T01:02:07.756Z,0.15
2016-12-05T01:03:07.334Z,0.31
2016-12-05T01:04:07.625Z,0.27
2016-12-05T01:05:07.125Z,0.27
2016-12-05T01:06:07.699Z,0.52
2016-12-05T01:07:07.390Z,0.48
2016-12-05T01:08:07.859Z,0.16
2016-12-05T01:09:07.341Z,0.20
2016-12-05T01:10:07.785Z,0.17
2016-12-05T01:11:08.253Z,0.33
2016-12-05T01:12:07.855Z,0.20
2016-12-05T01:13:07.703Z,0.10
2016-12-05T01:14:07.721Z,0.29
2016-12-05T01:15:07.862Z,0.17
2016-12-05T01:16:07.390Z,0.30
2016-12-05T01:17:08.708Z,0.46
2016-12-05T01:18:07.332Z,0.40
2016-12-05T01:19:07.909Z,0.26
2016-12-05T01:20:07.473Z,0.04
2016-12-05T01:21:08.295Z,-0.09
2016-12-05T01:22:07.938Z,-0.17
2016-12-05T01:23:07.430Z,-0.21
2016-12-05T01:24:07.327Z,-0.30
2016-12-05T01:25:07.782Z,-0.14
2016-12-05T01:26:07.202Z,-0.09
2016-12-05T01:27:07.853Z,0.04
2016-12-05T01:28:07.502Z,-0.07
2016-12-05T01:29:08.087Z,0.08
2016-12-05T01:30:07.838Z,0.00
2016-12-05T01:31:07.468Z,0.09
2016-12-05T01:32:08.031Z,0.28
2016-12-05T01:33:07.627Z,0.25
2016-12-05T01:34:07.407Z,0.09
2016-12-05T01:35:07.862Z,0.13
2016-12-05T01:36:07.835Z,0.11
2016-12-05T01:37:07.143Z,0.03
2016-12-05T01:38:07.762Z,0.10
2016-12-05T01:39:07.564Z,0.07
2016-12-05T01:40:08.124Z,-0.05
2016-12-05T01:41:07.782Z,-0.15
2016-12-05T01:42:07.855Z,0.07
2016-12-05T01:43:07.456Z,-0.11
2016-12-05T01:44:08.063Z,-0.12
2016-12-05T01:45:08.091Z,-0.13
2016-12-05T01:46:10.159Z,-0.11
2016-12-05T01:47:07.683Z,-0.16
2016-12-05T01:48:07.169Z,0.01
2016-12-05T01:49:07.719Z,0.01
2016-12-05T01:50:07.249Z,-0.07
2016-12-05T01:51:07.893Z,-0.13
2016-12-05T01:52:07.639Z,-0.08
2016-12-05T01:53:07.273Z,-0.09
2016-12-05T01:54:07.940Z,-0.23
2016-12-05T01:55:07.494Z,-0.06
2016-12-05T01:56:08.961Z,-0.05
2016-12-05T01:57:07.466Z,0.10
2016-12-05T01:58:08.083Z,0.27
2016-12-05T01:59:07.821Z,0.15
2016-12-05T02:00:07.427Z,0.15
2016-12-05T02:01:08.131Z,0.11
2016-12-05T02:02:07.682Z,0.08
2016-12-05T02:03:07.305Z,0.11
2016-12-05T02:04:07.981Z,0.26
2016-12-05T02:05:07.576Z,0.34
2016-12-05T02:06:07.135Z,0.38
2016-12-05T02:07:07.689Z,0.12
2016-12-05T02:08:07.831Z,-0.03
2016-12-05T02:09:07.827Z,-0.06
2016-12-05T02:10:07.373Z,-0.04
2016-12-05T02:11:07.958Z,0.05
2016-12-05T02:12:07.552Z,0.32
2016-12-05T02:13:08.257Z,-0.01
2016-12-05T02:14:07.910Z,0.23
2016-12-05T02:15:07.438Z,0.01
2016-12-05T02:16:08.060Z,0.11
2016-12-05T02:17:07.429Z,-0.12
2016-12-05T02:18:07.957Z,-0.03
2016-12-05T02:19:07.724Z,-0.17
2016-12-05T02:20:07.706Z,-0.05
2016-12-05T02:21:07.259Z,-0.02
2016-12-05T02:22:07.778Z,-0.06
2016-12-05T02:23:08.287Z,0.11
2016-12-05T02:24:07.754Z,-0.16
2016-12-05T02:25:07.830Z,-0.18
2016-12-05T02:26:07.643Z,-0.23
2016-12-05T02:27:07.199Z,-0.21
2016-12-05T02:28:07.833Z,-0.14
2016-12-05T02:29:07.402Z,0.01
2016-12-05T02:30:08.075Z,-0.08
2016-12-05T02:31:07.771Z,-0.02
2016-12-05T02:32:07.374Z,-0.04
2016-12-05T02:33:07.921Z,-0.06
2016-12-05T02:34:07.723Z,-0.11
2016-12-05T02:35:07.371Z,-0.06
2016-12-05T02:36:13.632Z,-0.23
2016-12-05T02:37:12.762Z,-0.18
2016-12-05T02:38:07.814Z,-0.12
2016-12-05T02:39:07.441Z,-0.15
2016-12-05T02:40:07.946Z,-0.15
2016-12-05T02:41:07.179Z,-0.02
2016-12-05T02:42:07.649Z,-0.02
2016-12-05T02:43:07.761Z,0.22
2016-12-05T02:44:12.828Z,0.25
2016-12-05T02:45:07.413Z,0.25
2016-12-05T02:46:07.920Z,0.33
2016-12-05T02:47:07.937Z,0.37
2016-12-05T02:48:07.448Z,0.15
2016-12-05T02:49:07.904Z,0.30
2016-12-05T02:50:07.303Z,0.29
2016-12-05T02:51:07.946Z,0.35
2016-12-05T02:52:07.469Z,0.26
2016-12-05T02:53:08.006Z,0.46
2016-12-05T02:54:13.121Z,0.44
2016-12-05T02:55:07.758Z,0.40
2016-12-05T02:56:07.199Z,0.30
2016-12-05T02:57:07.241Z,0.32
2016-12-05T02:58:07.771Z,0.02
2016-12-05T02:59:07.346Z,0.02
2016-12-05T03:00:07.775Z,-0.18
2016-12-05T03:01:07.433Z,-0.28
2016-12-05T03:02:08.116Z,-0.10
2016-12-05T03:03:07.659Z,-0.21
2016-12-05T03:04:07.264Z,-0.24
2016-12-05T03:05:07.867Z,-0.14
2016-12-05T03:06:07.394Z,-0.21
2016-12-05T03:07:07.932Z,-0.23
2016-12-05T03:08:07.495Z,-0.19
2016-12-05T03:09:07.998Z,-0.20
2016-12-05T03:10:07.773Z,-0.03
2016-12-05T03:11:07.419Z,0.07
2016-12-05T03:12:08.138Z,0.19
2016-12-05T03:13:07.820Z,0.05
2016-12-05T03:14:07.326Z,0.16
2016-12-05T03:15:07.901Z,0.14
2016-12-05T03:16:07.432Z,-0.04
2016-12-05T03:17:08.232Z,0.01
2016-12-05T03:18:07.780Z,0.08
2016-12-05T03:19:07.387Z,-0.16
2016-12-05T03:20:08.099Z,-0.31
2016-12-05T03:21:07.715Z,-0.14
2016-12-05T03:22:07.254Z,-0.25
2016-12-05T03:23:07.858Z,0.07
2016-12-05T03:24:07.417Z,-0.22
2016-12-05T03:25:08.074Z,0.24
2016-12-05T03:26:07.611Z,-0.02
2016-12-05T03:27:07.153Z,0.11
2016-12-05T03:28:07.900Z,-0.18
2016-12-05T03:29:07.499Z,0.10
2016-12-05T03:30:07.453Z,0.05
2016-12-05T03:31:08.142Z,-0.32
2016-12-05T03:32:07.784Z,-0.32
2016-12-05T03:33:07.385Z,-0.44
2016-12-05T03:34:07.949Z,-0.30
2016-12-05T03:35:07.588Z,-0.11
2016-12-05T03:36:07.144Z,-0.23
2016-12-05T03:37:07.660Z,-0.13
2016-12-05T03:38:07.885Z,0.02
2016-12-05T03:39:07.487Z,0.25
2016-12-05T03:40:07.235Z,0.35
2016-12-05T03:41:07.940Z,0.34
2016-12-05T03:42:07.539Z,0.40
2016-12-05T03:43:08.254Z,0.43
2016-12-05T03:44:07.938Z,0.40
2016-12-05T03:45:07.511Z,0.36
2016-12-05T03:46:08.111Z,0.22
2016-12-05T03:47:07.720Z,0.37
2016-12-05T03:48:07.199Z,0.14
2016-12-05T03:49:07.770Z,0.14
2016-12-05T03:50:07.310Z,0.18
2016-12-05T03:51:07.804Z,0.32
2016-12-05T03:52:07.190Z,0.18
2016-12-05T03:53:07.679Z,0.01
2016-12-05T03:54:07.361Z,-0.32
2016-12-05T03:55:07.231Z,0.06
2016-12-05T03:56:07.758Z,0.03
2016-12-05T03:57:07.620Z,-0.09
2016-12-05T03:58:07.152Z,-0.07
2016-12-05T03:59:07.113Z,-0.03
2016-12-05T04:00:07.759Z,0.15
2016-12-05T04:01:07.427Z,0.12
2016-12-05T04:02:07.937Z,-0.08
2016-12-05T04:03:07.761Z,-0.06
2016-12-05T04:04:07.364Z,0.01
2016-12-05T04:05:08.026Z,0.02
2016-12-05T04:06:07.547Z,-0.00
2016-12-05T04:07:08.265Z,0.14
2016-12-05T04:08:07.869Z,0.01
2016-12-05T04:09:08.094Z,0.05
2016-12-05T04:10:07.832Z,0.19
2016-12-05T04:11:07.565Z,0.25
2016-12-05T04:12:07.134Z,0.05
2016-12-05T04:13:07.808Z,-0.02
2016-12-05T04:14:07.365Z,-0.05
2016-12-05T04:15:07.984Z,0.04
2016-12-05T04:16:07.485Z,-0.10
2016-12-05T04:17:08.142Z,-0.21
2016-12-05T04:18:07.705Z,-0.12
2016-12-05T04:19:07.299Z,-0.14
2016-12-05T04:20:07.941Z,-0.10
2016-12-05T04:21:07.529Z,0.01
2016-12-05T04:22:07.676Z,-0.39
2016-12-05T04:23:07.164Z,-0.35
2016-12-05T04:24:07.745Z,-0.17
2016-12-05T04:25:07.267Z,-0.22
2016-12-05T04:26:07.950Z,-0.19
2016-12-05T04:27:07.526Z,0.15
2016-12-05T04:28:08.117Z,0.02
2016-12-05T04:29:07.934Z,-0.25
2016-12-05T04:31:07.750Z,-0.15
2016-12-05T04:32:07.294Z,-0.10
2016-12-05T04:33:07.897Z,-0.13
2016-12-05T04:34:07.451Z,-0.27
2016-12-05T04:35:08.107Z,-0.07
2016-12-05T04:36:07.631Z,-0.24
2016-12-05T04:37:07.152Z,-0.16
2016-12-05T04:38:07.660Z,-0.26
2016-12-05T04:39:08.096Z,-0.41
2016-12-05T04:40:07.733Z,-0.23
2016-12-05T04:41:07.289Z,-0.26
2016-12-05T04:42:07.786Z,-0.38
2016-12-05T04:43:07.310Z,-0.19
2016-12-05T04:44:07.898Z,-0.29
2016-12-05T04:45:07.463Z,-0.40
2016-12-05T04:46:08.069Z,-0.22
2016-12-05T04:47:07.698Z,0.03
2016-12-05T04:48:09.387Z,-0.16
2016-12-05T04:49:07.953Z,-0.09
2016-12-05T04:50:07.420Z,-0.36
2016-12-05T04:51:08.075Z,-0.15
2016-12-05T04:52:07.557Z,-0.16
2016-12-05T04:53:08.181Z,-0.16
2016-12-05T04:54:07.779Z,-0.14
2016-12-05T04:55:07.411Z,-0.18
2016-12-05T04:56:08.111Z,-0.02
2016-12-05T04:57:07.731Z,-0.08
2016-12-05T04:58:07.345Z,-0.22
2016-12-05T04:59:07.948Z,-0.09
2016-12-05T05:00:07.467Z,-0.21
2016-12-05T05:01:07.379Z,-0.07
2016-12-05T05:02:08.057Z,0.06
2016-12-05T05:03:07.635Z,-0.06
2016-12-05T05:04:07.208Z,-0.23
2016-12-05T05:05:07.831Z,0.02
2016-12-05T05:06:07.369Z,-0.19
2016-12-05T05:07:07.984Z,0.03
2016-12-05T05:08:07.640Z,0.07
2016-12-05T05:09:07.164Z,-0.19
2016-12-05T05:10:07.741Z,-0.03
2016-12-05T05:11:07.284Z,-0.15
2016-12-05T05:12:07.882Z,-0.14
2016-12-05T05:13:07.561Z,0.07
2016-12-05T05:14:08.239Z,-0.06
2016-12-05T05:15:07.749Z,-0.27
2016-12-05T05:16:07.239Z,-0.02
2016-12-05T05:17:07.920Z,-0.31
2016-12-05T05:18:07.447Z,-0.15
2016-12-05T05:19:07.918Z,-0.39
2016-12-05T05:20:07.600Z,-0.03
2016-12-05T05:21:07.264Z,-0.04
2016-12-05T05:22:07.891Z,0.06
2016-12-05T05:23:07.361Z,0.08
2016-12-05T05:24:08.704Z,0.10
2016-12-05T05:25:10.022Z,0.07
2016-12-05T05:26:07.460Z,0.03
2016-12-05T05:27:08.082Z,0.02
2016-12-05T05:28:07.693Z,0.04
2016-12-05T05:29:07.257Z,-0.07
2016-12-05T05:30:07.864Z,-0.27
2016-12-05T05:31:07.552Z,-0.31
2016-12-05T05:32:07.118Z,-0.25
2016-12-05T05:33:07.711Z,-0.23
2016-12-05T05:34:07.261Z,-0.23
2016-12-05T05:35:07.911Z,-0.29
2016-12-05T05:36:07.493Z,-0.22
2016-12-05T05:37:08.165Z,-0.27
2016-12-05T05:38:08.366Z,-0.55
2016-12-05T05:39:08.018Z,-0.43
2016-12-05T05:40:07.608Z,-0.39
2016-12-05T05:41:08.773Z,-0.52
2016-12-05T05:42:07.289Z,-0.31
2016-12-05T05:43:07.990Z,-0.41
2016-12-05T05:44:07.784Z,-0.23
2016-12-05T05:45:07.438Z,-0.21
2016-12-05T05:46:07.967Z,-0.09
2016-12-05T05:47:07.771Z,-0.08
2016-12-05T05:48:07.396Z,-0.13
2016-12-05T05:49:08.104Z,-0.25
2016-12-05T05:50:07.750Z,-0.15
2016-12-05T05:51:07.386Z,0.04
2016-12-05T05:52:07.848Z,0.13
2016-12-05T05:53:07.397Z,-0.15
2016-12-05T05:54:08.477Z,-0.39
2016-12-05T05:55:08.124Z,-0.37
2016-12-05T05:56:07.833Z,-0.43
2016-12-05T05:57:07.416Z,-0.18
2016-12-05T05:58:08.013Z,-0.35
2016-12-05T05:59:07.634Z,-0.63
2016-12-05T06:00:07.311Z,-0.62
2016-12-05T06:01:07.893Z,-0.56
2016-12-05T06:02:07.402Z,-0.71
2016-12-05T06:03:08.127Z,-0.43
2016-12-05T06:04:07.744Z,-0.36
2016-12-05T06:05:07.748Z,-0.37
2016-12-05T06:06:07.332Z,-0.55
2016-12-05T06:07:08.022Z,-0.41
2016-12-05T06:08:08.053Z,-0.20
2016-12-05T06:09:07.655Z,-0.17
2016-12-05T06:10:07.173Z,0.04
2016-12-05T06:11:07.874Z,-0.11
2016-12-05T06:12:07.401Z,-0.19
2016-12-05T06:13:08.014Z,-0.15
2016-12-05T06:14:07.500Z,-0.32
2016-12-05T06:15:08.059Z,-0.50
2016-12-05T06:16:07.738Z,-0.56
2016-12-05T06:17:07.437Z,-0.55
2016-12-05T06:18:08.076Z,-0.55
2016-12-05T06:19:07.754Z,-0.25
2016-12-05T06:20:07.341Z,-0.14
2016-12-05T06:21:07.937Z,-0.06
2016-12-05T06:22:07.530Z,-0.07
2016-12-05T06:23:08.119Z,-0.09
2016-12-05T06:24:07.711Z,-0.24
2016-12-05T06:25:07.300Z,-0.18
2016-12-05T06:26:07.397Z,-0.35
2016-12-05T06:27:08.125Z,-0.42
2016-12-05T06:28:07.751Z,-0.51
2016-12-05T06:29:07.315Z,-0.53
2016-12-05T06:30:08.114Z,-0.29
2016-12-05T06:31:07.769Z,-0.55
2016-12-05T06:32:07.321Z,-0.51
2016-12-05T06:33:07.869Z,-0.43
2016-12-05T06:34:07.432Z,-0.40
2016-12-05T06:35:08.098Z,-0.25
2016-12-05T06:36:07.657Z,-0.38
2016-12-05T06:37:07.126Z,-0.53
2016-12-05T06:38:08.030Z,-0.69
2016-12-05T06:39:07.525Z,-0.65
2016-12-05T06:40:08.094Z,-0.69
2016-12-05T06:41:07.599Z,-0.58
2016-12-05T06:42:07.091Z,-0.54
2016-12-05T06:43:07.584Z,-0.40
2016-12-05T06:44:08.202Z,-0.58
2016-12-05T06:45:07.891Z,-0.86
2016-12-05T06:46:07.482Z,-0.91
2016-12-05T06:47:08.146Z,-0.56
2016-12-05T06:48:07.723Z,-0.61
2016-12-05T06:49:07.172Z,-0.55
2016-12-05T06:50:07.770Z,-0.60
2016-12-05T06:51:07.266Z,-0.53
2016-12-05T06:52:07.860Z,-0.71
2016-12-05T06:53:07.432Z,-0.86
2016-12-05T06:54:07.996Z,-0.82
2016-12-05T06:55:07.519Z,-0.72
2016-12-05T06:56:08.455Z,-0.78
2016-12-05T06:57:08.904Z,-0.75
2016-12-05T06:58:07.422Z,-0.46
2016-12-05T06:59:07.722Z,-0.25
2016-12-05T07:00:07.620Z,-0.35
2016-12-05T07:01:07.147Z,-0.47
2016-12-05T07:02:07.802Z,-0.58
2016-12-05T07:03:07.345Z,-0.79
2016-12-05T07:04:08.791Z,-0.70
2016-12-05T07:05:07.333Z,-0.57
2016-12-05T07:06:07.987Z,-0.85
2016-12-05T07:07:07.514Z,-0.80
2016-12-05T07:08:07.330Z,-0.96
2016-12-05T07:09:07.931Z,-0.77
2016-12-05T07:10:07.513Z,-0.65
2016-12-05T07:11:08.151Z,-0.50
2016-12-05T07:12:08.173Z,-0.48
2016-12-05T07:13:07.685Z,-0.30
2016-12-05T07:14:07.237Z,-0.33
2016-12-05T07:15:08.336Z,-0.27
2016-12-05T07:16:08.092Z,-0.34
2016-12-05T07:17:07.852Z,-0.45
2016-12-05T07:18:07.425Z,-0.27
2016-12-05T07:19:07.572Z,-0.20
2016-12-05T07:20:07.921Z,-0.43
2016-12-05T07:21:07.501Z,-0.45
2016-12-05T07:22:08.106Z,-0.24
2016-12-05T07:23:07.592Z,-0.42
2016-12-05T07:24:07.162Z,-0.47
2016-12-05T07:25:07.713Z,-0.26
2016-12-05T07:26:07.310Z,-0.09
2016-12-05T07:27:08.018Z,-0.39
2016-12-05T07:28:07.539Z,-0.39
2016-12-05T07:29:08.074Z,-0.35
2016-12-05T07:30:07.774Z,-0.40
2016-12-05T07:31:07.416Z,-0.62
2016-12-05T07:32:08.564Z,-0.50
2016-12-05T07:33:07.721Z,-0.33
2016-12-05T07:34:07.208Z,-0.40
2016-12-05T07:35:07.801Z,-0.25
2016-12-05T07:36:08.271Z,-0.42
2016-12-05T07:37:07.956Z,-0.53
2016-12-05T07:38:07.599Z,-0.53
2016-12-05T07:39:08.286Z,-0.41
2016-12-05T08:51:07.376Z,-0.26
2016-12-05T08:52:08.517Z,-0.25
2016-12-05T08:53:08.089Z,-0.06
2016-12-05T08:54:07.671Z,-0.16
2016-12-05T08:55:07.543Z,0.08
2016-12-05T08:56:08.232Z,0.05
2016-12-05T08:57:07.693Z,0.13
2016-12-05T08:58:08.977Z,0.14
2016-12-05T08:59:07.486Z,0.08
2016-12-05T09:00:08.119Z,0.22
2016-12-05T09:01:07.818Z,0.07
2016-12-05T09:02:07.379Z,0.26
2016-12-05T09:03:18.091Z,0.25
2016-12-05T09:04:07.461Z,0.01
2016-12-05T09:05:08.219Z,0.00
2016-12-05T09:06:07.969Z,0.23
2016-12-05T09:07:07.490Z,0.06
2016-12-05T09:08:08.200Z,0.10
2016-12-05T09:09:07.859Z,-0.27
2016-12-05T09:10:07.342Z,-0.30
2016-12-05T09:11:08.067Z,0.07
2016-12-05T09:12:07.562Z,-0.12
2016-12-05T09:13:08.195Z,0.02
2016-12-05T09:14:07.819Z,0.36
2016-12-05T09:15:07.305Z,0.09
2016-12-05T09:16:07.886Z,0.27
2016-12-05T09:17:07.634Z,0.02
2016-12-05T09:18:07.161Z,0.25
2016-12-05T09:19:07.844Z,0.19
2016-12-05T09:20:07.508Z,0.12
2016-12-05T09:21:08.226Z,0.21
2016-12-05T09:22:07.905Z,0.30
2016-12-05T09:23:07.387Z,0.44
2016-12-05T09:24:07.958Z,0.63
2016-12-05T09:25:07.842Z,0.46
2016-12-05T09:26:07.432Z,0.43
2016-12-05T09:27:07.990Z,0.38
2016-12-05T09:28:07.517Z,0.12
2016-12-05T09:29:08.018Z,0.16
2016-12-05T09:30:07.550Z,0.03
2016-12-05T09:31:08.988Z,0.38
2016-12-05T09:32:07.497Z,0.49
2016-12-05T09:33:08.066Z,0.74
2016-12-05T09:34:07.551Z,0.86
2016-12-05T09:35:08.101Z,0.83
2016-12-05T09:36:07.617Z,0.66
2016-12-05T09:37:07.207Z,0.32
2016-12-05T09:38:07.748Z,0.40
2016-12-05T09:39:07.279Z,0.15
2016-12-05T09:40:07.798Z,0.16
2016-12-05T09:41:07.299Z,0.35
2016-12-05T09:42:07.904Z,0.65
2016-12-05T09:43:07.419Z,0.44
2016-12-05T09:44:08.070Z,0.41
2016-12-05T09:45:07.658Z,0.43
2016-12-05T09:46:07.098Z,0.37
2016-12-05T09:47:08.267Z,0.47
2016-12-05T09:48:07.812Z,0.33
2016-12-05T09:49:07.325Z,0.40
2016-12-05T09:50:08.011Z,0.55
2016-12-05T09:51:07.588Z,0.68
2016-12-05T09:52:07.318Z,0.60
2016-12-05T09:53:07.874Z,0.62
2016-12-05T09:54:07.573Z,0.53
2016-12-05T09:55:08.199Z,0.65
2016-12-05T09:56:07.782Z,0.66
2016-12-05T09:57:07.335Z,0.78
2016-12-05T09:58:07.952Z,0.58
2016-12-05T09:59:07.506Z,0.43
2016-12-05T10:00:07.957Z,0.41
2016-12-05T10:01:07.528Z,0.68
2016-12-05T10:02:08.121Z,0.75
2016-12-05T10:03:07.678Z,0.65
2016-12-05T10:04:07.152Z,0.68
2016-12-05T10:05:07.774Z,0.50
2016-12-05T10:06:07.680Z,0.81
2016-12-05T10:07:07.182Z,0.88
2016-12-05T10:08:07.701Z,0.78
2016-12-05T10:09:07.547Z,0.86
2016-12-05T10:10:08.225Z,0.61
2016-12-05T10:11:07.899Z,0.62
2016-12-05T10:12:07.446Z,0.75
2016-12-05T10:13:08.039Z,0.77
2016-12-05T10:14:07.592Z,0.89
2016-12-05T10:15:07.087Z,0.71
2016-12-05T10:16:07.632Z,0.71
2016-12-05T10:17:07.306Z,0.92
2016-12-05T10:18:07.848Z,0.75
2016-12-05T10:19:07.339Z,0.87
2016-12-05T10:20:07.925Z,0.94
2016-12-05T10:21:07.450Z,0.99
2016-12-05T10:22:08.097Z,0.91
2016-12-05T10:23:07.618Z,0.98
2016-12-05T10:24:07.168Z,0.71
2016-12-05T10:25:07.715Z,0.94
2016-12-05T10:26:07.530Z,1.02
2016-12-05T10:27:08.124Z,1.11
2016-12-05T10:28:07.692Z,1.06
2016-12-05T10:29:07.191Z,1.05
2016-12-05T10:30:07.717Z,1.11
2016-12-05T10:31:07.216Z,1.11
2016-12-05T10:32:07.773Z,1.28
2016-12-05T10:33:07.351Z,1.14
2016-12-05T10:34:07.898Z,1.17
2016-12-05T10:35:07.511Z,1.33
2016-12-05T10:36:08.002Z,1.37
2016-12-05T10:37:07.655Z,1.10
2016-12-05T10:38:07.141Z,1.12
2016-12-05T10:39:07.702Z,1.40
2016-12-05T10:40:07.590Z,1.39
2016-12-05T10:41:07.051Z,1.35
2016-12-05T10:42:07.636Z,1.46
2016-12-05T10:43:07.140Z,1.54
2016-12-05T10:44:07.791Z,1.64
2016-12-05T10:45:07.326Z,1.53
2016-12-05T10:46:07.915Z,1.43
2016-12-05T10:47:07.442Z,1.40
2016-12-05T10:48:07.987Z,1.55
2016-12-05T10:49:07.575Z,1.59
2016-12-05T10:50:08.240Z,1.60
2016-12-05T10:51:07.831Z,1.56
2016-12-05T10:52:07.393Z,1.58
2016-12-05T10:53:07.991Z,1.43
2016-12-05T10:54:07.480Z,1.50
2016-12-05T10:55:08.132Z,1.55
2016-12-05T10:56:07.676Z,1.66
2016-12-05T10:57:07.539Z,1.67
2016-12-05T10:58:08.188Z,1.57
2016-12-05T10:59:07.750Z,1.65
2016-12-05T11:00:07.523Z,1.70
2016-12-05T11:01:08.431Z,1.75
2016-12-05T11:02:07.901Z,1.85
2016-12-05T11:03:07.401Z,1.86
2016-12-05T11:04:07.921Z,1.96
2016-12-05T11:05:07.500Z,1.88
2016-12-05T11:06:08.181Z,1.82
2016-12-05T11:07:07.773Z,1.66
2016-12-05T11:08:07.289Z,1.88
2016-12-05T11:09:07.864Z,1.80
2016-12-05T11:10:07.378Z,2.03
2016-12-05T11:11:07.990Z,1.96
2016-12-05T11:12:07.479Z,1.96
2016-12-05T11:13:08.172Z,2.06
2016-12-05T11:14:07.772Z,1.86
2016-12-05T11:15:45.515Z,1.86
2016-12-05T11:16:08.213Z,1.86
2016-12-05T11:17:07.904Z,1.91
2016-12-05T11:18:07.481Z,1.98
2016-12-05T11:19:08.075Z,2.02
2016-12-05T11:20:07.684Z,2.08
2016-12-05T11:21:07.240Z,1.96
2016-12-05T11:22:07.921Z,1.98
2016-12-05T11:23:08.349Z,2.03
2016-12-05T11:24:07.946Z,2.08
2016-12-05T11:25:07.517Z,2.20
2016-12-05T11:26:07.265Z,2.24
2016-12-05T11:27:08.692Z,2.31
2016-12-05T11:28:07.159Z,2.09
2016-12-05T11:29:08.599Z,2.00
2016-12-05T11:30:07.310Z,2.18
2016-12-05T11:31:07.997Z,2.00
2016-12-05T11:32:07.670Z,2.04
2016-12-05T11:33:07.278Z,2.17
2016-12-05T11:34:07.799Z,2.01
2016-12-05T11:35:07.483Z,2.13
2016-12-05T11:36:07.085Z,2.20
2016-12-05T11:37:07.739Z,2.18
2016-12-05T11:38:07.304Z,2.23
2016-12-05T11:39:07.988Z,2.35
2016-12-05T11:40:07.631Z,2.45
2016-12-05T11:41:07.194Z,2.51
2016-12-05T11:42:07.766Z,2.30
2016-12-05T11:43:07.345Z,2.43
2016-12-05T11:44:07.973Z,2.39
2016-12-05T11:45:07.520Z,2.63
2016-12-05T11:46:08.175Z,2.45
2016-12-05T11:47:07.762Z,2.44
2016-12-05T11:48:07.256Z,2.45
2016-12-05T11:49:07.888Z,2.27
2016-12-05T11:50:07.479Z,2.39
2016-12-05T11:51:08.002Z,2.54
2016-12-05T11:52:07.441Z,2.52
2016-12-05T11:53:07.964Z,2.53
2016-12-05T11:54:07.489Z,2.55
2016-12-05T11:55:08.016Z,2.68
2016-12-05T11:56:07.671Z,2.83
2016-12-05T11:57:07.167Z,2.80
2016-12-05T11:58:07.769Z,2.79
2016-12-05T11:59:07.330Z,2.62
2016-12-05T12:00:07.865Z,2.44
2016-12-05T12:01:07.430Z,2.54
2016-12-05T12:02:07.872Z,2.65
2016-12-05T12:03:07.104Z,2.59
2016-12-05T12:04:07.625Z,2.55
2016-12-05T12:05:07.346Z,2.77
2016-12-05T12:06:07.840Z,2.76
2016-12-05T12:07:07.421Z,2.85
2016-12-05T12:08:08.012Z,2.70
2016-12-05T12:09:07.657Z,2.76
2016-12-05T12:10:07.173Z,2.78
2016-12-05T12:11:07.763Z,2.78
2016-12-05T12:12:07.247Z,2.77
2016-12-05T12:13:07.874Z,2.73
2016-12-05T12:14:07.500Z,2.75
2016-12-05T12:15:07.990Z,2.89
2016-12-05T12:16:07.629Z,2.88
2016-12-05T12:17:07.335Z,2.91
2016-12-05T12:18:07.920Z,2.89
2016-12-05T12:19:07.511Z,2.73
2016-12-05T12:20:08.081Z,2.88
2016-12-05T12:21:08.128Z,2.90
2016-12-05T12:22:07.598Z,2.81
2016-12-05T12:23:07.093Z,2.90
2016-12-05T12:24:07.641Z,2.89
2016-12-05T12:25:07.165Z,2.99
2016-12-05T12:26:07.716Z,3.09
2016-12-05T12:27:07.211Z,3.00
2016-12-05T12:28:07.845Z,2.98
2016-12-05T12:29:07.460Z,2.96
2016-12-05T12:30:14.111Z,3.03
2016-12-05T12:31:07.764Z,3.12
2016-12-05T12:32:07.391Z,3.00
2016-12-05T12:33:08.024Z,3.05
2016-12-05T12:34:07.641Z,3.06
2016-12-05T12:35:07.093Z,3.06
2016-12-05T12:36:07.674Z,3.09
2016-12-05T12:37:07.442Z,3.27
2016-12-05T12:38:07.993Z,3.11
2016-12-05T12:39:07.529Z,3.22
2016-12-05T12:40:08.104Z,3.09
2016-12-05T12:41:07.729Z,3.17
2016-12-05T12:42:07.328Z,3.27
2016-12-05T12:43:07.966Z,3.15
2016-12-05T12:44:07.582Z,3.17
2016-12-05T12:45:08.264Z,3.11
2016-12-05T12:46:07.754Z,3.16
2016-12-05T12:47:07.218Z,3.24
2016-12-05T12:48:07.794Z,3.13
2016-12-05T12:49:07.289Z,3.04
2016-12-05T12:50:07.605Z,3.18
2016-12-05T12:51:07.142Z,3.21
2016-12-05T12:52:07.686Z,3.14
2016-12-05T12:53:07.162Z,3.35
2016-12-05T12:54:07.749Z,3.20
2016-12-05T12:55:07.249Z,3.12
2016-12-05T12:56:07.744Z,3.14
2016-12-05T12:57:07.276Z,3.33
2016-12-05T12:58:07.894Z,3.17
2016-12-05T12:59:07.386Z,3.31
2016-12-05T13:00:07.968Z,3.45
2016-12-05T13:01:07.599Z,3.45
2016-12-05T13:02:07.104Z,3.53
2016-12-05T13:03:07.685Z,3.47
2016-12-05T13:04:07.341Z,3.55
2016-12-05T13:05:08.017Z,3.47
2016-12-05T13:06:07.521Z,3.37
2016-12-05T13:07:08.116Z,3.36
2016-12-05T13:08:13.330Z,3.44
2016-12-05T13:09:07.970Z,3.57
2016-12-05T13:10:08.165Z,3.57
2016-12-05T13:11:07.693Z,3.47
2016-12-05T13:12:07.262Z,3.45
2016-12-05T13:13:07.867Z,3.47
2016-12-05T13:14:07.425Z,3.42
2016-12-05T13:15:08.037Z,3.44
2016-12-05T13:16:07.680Z,3.57
2016-12-05T13:17:07.340Z,3.73
2016-12-05T13:18:07.913Z,3.66
2016-12-05T13:19:07.532Z,3.71
2016-12-05T13:20:08.099Z,3.73
2016-12-05T13:21:07.684Z,3.80
2016-12-05T13:22:07.242Z,3.74
2016-12-05T13:23:07.909Z,3.69
2016-12-05T13:24:07.523Z,3.88
2016-12-05T13:25:08.138Z,4.03
2016-12-05T13:26:07.676Z,4.02
2016-12-05T13:27:07.245Z,4.06
2016-12-05T13:28:07.961Z,4.01
2016-12-05T13:29:07.551Z,4.11
2016-12-05T13:30:08.100Z,4.20
2016-12-05T13:31:07.750Z,4.14
2016-12-05T13:32:07.334Z,4.03
2016-12-05T13:33:07.972Z,4.01
2016-12-05T13:34:07.623Z,4.17
2016-12-05T13:35:07.149Z,4.25
2016-12-05T13:36:07.766Z,4.34
2016-12-05T13:37:07.644Z,4.49
2016-12-05T13:38:07.203Z,4.31
2016-12-05T13:39:07.811Z,4.33
2016-12-05T13:40:07.408Z,4.26
2016-12-05T13:41:08.030Z,4.29
2016-12-05T13:42:07.576Z,4.10
2016-12-05T13:43:08.195Z,4.20
2016-12-05T13:44:07.809Z,4.07
2016-12-05T13:45:07.312Z,4.06
2016-12-05T13:46:07.871Z,3.88
2016-12-05T13:47:07.567Z,3.88
2016-12-05T13:48:08.133Z,3.81
2016-12-05T13:49:07.785Z,3.80
2016-12-05T13:50:07.399Z,3.85
2016-12-05T13:51:08.059Z,3.76
2016-12-05T13:52:07.644Z,3.69
2016-12-05T13:53:07.152Z,3.60
2016-12-05T13:54:07.789Z,3.70
2016-12-05T13:55:07.253Z,3.70
2016-12-05T13:56:07.823Z,3.54
2016-12-05T13:57:07.293Z,3.69
2016-12-05T13:58:07.959Z,3.76
2016-12-05T13:59:07.508Z,3.84
2016-12-05T14:00:08.041Z,4.03
2016-12-05T14:01:07.671Z,4.28
2016-12-05T14:02:07.138Z,4.47
2016-12-05T14:03:07.712Z,4.49
2016-12-05T14:04:07.356Z,4.57
2016-12-05T14:05:07.929Z,4.62
2016-12-05T14:06:07.500Z,4.56
2016-12-05T14:07:08.053Z,4.06
2016-12-05T14:08:07.105Z,4.04
2016-12-05T14:09:07.794Z,4.00
2016-12-05T14:10:07.694Z,3.87
2016-12-05T14:11:07.273Z,4.09
2016-12-05T14:12:07.948Z,4.02
2016-12-05T14:13:07.521Z,3.84
2016-12-05T14:14:08.130Z,3.99
2016-12-05T14:15:07.715Z,4.01
2016-12-05T14:16:07.188Z,3.76
2016-12-05T14:17:07.771Z,3.88
2016-12-05T14:18:07.244Z,3.84
2016-12-05T14:19:07.881Z,3.86
2016-12-05T14:20:07.506Z,3.69